Time,TemperatureF,DewpointF,PressureIn,WindDirection,WindDirectionDegrees,WindSpeedMPH,WindSpeedGustMPH,Humidity,HourlyPrecipIn,Conditions,Clouds,dailyrainin,SoftwareType,DateUTC
2013-09-13 00:00:00,67.7,64.7,30.08,East,96,0.0,0.0,90,0.00,,---,0.55,VWS V14.01,2013-09-13 05:00:00,
2013-09-13 00:03:00,68.8,64.8,30.09,ENE,61,3.0,3.0,87,0.00,,---,0.00,VWS V14.01,2013-09-13 05:03:00,
2013-09-13 00:08:00,68.7,64.3,30.09,ENE,69,0.0,5.0,86,0.00,,---,0.00,VWS V14.01,2013-09-13 05:08:00,
2013-09-13 00:13:00,68.7,64.0,30.09,ENE,67,0.0,5.0,85,0.00,,---,0.00,VWS V14.01,2013-09-13 05:13:00,
2013-09-13 00:19:00,68.5,63.8,30.09,ENE,67,0.0,5.0,85,0.00,,---,0.00,VWS V14.01,2013-09-13 05:19:00,
2013-09-13 00:24:00,68.4,63.7,30.09,ENE,69,0.0,5.0,85,0.00,,---,0.00,VWS V14.01,2013-09-13 05:24:00,
2013-09-13 00:29:00,68.3,63.3,30.09,ENE,72,0.0,5.0,84,0.00,,---,0.00,VWS V14.01,2013-09-13 05:29:00,
2013-09-13 00:30:00,68.0,65.0,30.08,East,96,0.0,2.0,90,0.00,,---,0.55,VWS V14.01,2013-09-13 05:30:00,
2013-09-13 00:34:00,68.1,63.1,30.10,ENE,72,0.0,4.0,84,0.00,,---,0.00,VWS V14.01,2013-09-13 05:34:00,
2013-09-13 00:39:00,68.0,62.7,30.09,ENE,68,7.0,7.0,83,0.00,,---,0.00,VWS V14.01,2013-09-13 05:39:00,
2013-09-13 00:44:00,67.9,62.2,30.10,ENE,65,0.0,7.0,82,0.00,,---,0.00,VWS V14.01,2013-09-13 05:44:00,
2013-09-13 00:49:00,67.7,61.7,30.10,ENE,71,0.0,7.0,81,0.00,,---,0.00,VWS V14.01,2013-09-13 05:49:00,
2013-09-13 00:54:00,67.6,61.2,30.10,ENE,74,0.0,7.0,80,0.00,,---,0.00,VWS V14.01,2013-09-13 05:54:00,
2013-09-13 00:59:00,67.4,61.0,30.10,ENE,75,0.0,7.0,80,0.00,,---,0.00,VWS V14.01,2013-09-13 05:59:00,
2013-09-13 01:00:00,68.7,65.0,30.09,ENE,62,0.0,8.0,88,0.00,,---,0.55,VWS V14.01,2013-09-13 06:00:00,
2013-09-13 01:04:00,67.3,60.9,30.10,ENE,75,0.0,4.0,80,0.00,,---,0.00,VWS V14.01,2013-09-13 06:04:00,
2013-09-13 01:09:00,67.1,60.7,30.10,ENE,69,0.0,4.0,80,0.00,,---,0.00,VWS V14.01,2013-09-13 06:09:00,
2013-09-13 01:14:00,67.0,60.6,30.10,ENE,71,6.0,6.0,80,0.00,,---,0.00,VWS V14.01,2013-09-13 06:14:00,
2013-09-13 01:20:00,66.8,60.4,30.10,ENE,60,0.0,6.0,80,0.00,,---,0.00,VWS V14.01,2013-09-13 06:20:00,
2013-09-13 01:25:00,66.7,60.3,30.10,ENE,63,5.0,6.0,80,0.00,,---,0.00,VWS V14.01,2013-09-13 06:25:00,
2013-09-13 01:30:00,66.6,60.2,30.10,ENE,67,0.0,6.0,80,0.00,,---,0.00,VWS V14.01,2013-09-13 06:30:00,
2013-09-13 01:35:00,66.6,60.2,30.10,ENE,72,6.0,7.0,80,0.00,,---,0.00,VWS V14.01,2013-09-13 06:35:00,
2013-09-13 01:40:00,66.5,60.2,30.10,ENE,67,0.0,7.0,80,0.00,,---,0.00,VWS V14.01,2013-09-13 06:40:00,
2013-09-13 01:45:00,66.3,60.3,30.10,ENE,58,0.0,7.0,81,0.00,,---,0.00,VWS V14.01,2013-09-13 06:45:00,
2013-09-13 01:50:00,66.1,59.8,30.10,ENE,64,3.0,7.0,80,0.00,,---,0.00,VWS V14.01,2013-09-13 06:50:00,
2013-09-13 01:55:00,66.1,59.8,30.10,ENE,71,0.0,7.0,80,0.00,,---,0.00,VWS V14.01,2013-09-13 06:55:00,
2013-09-13 02:00:00,66.1,60.1,30.10,ENE,70,1.0,7.0,81,0.00,,---,0.00,VWS V14.01,2013-09-13 07:00:00,
2013-09-13 02:05:00,66.0,60.0,30.10,ENE,66,2.0,3.0,81,0.00,,---,0.00,VWS V14.01,2013-09-13 07:05:00,
2013-09-13 02:10:00,65.9,59.6,30.10,ENE,68,1.0,3.0,80,0.00,,---,0.00,VWS V14.01,2013-09-13 07:10:00,
2013-09-13 02:15:00,65.8,59.5,30.10,ENE,69,0.0,4.0,80,0.00,,---,0.00,VWS V14.01,2013-09-13 07:15:00,
2013-09-13 02:20:00,65.8,59.5,30.10,ENE,71,0.0,4.0,80,0.00,,---,0.00,VWS V14.01,2013-09-13 07:20:00,
2013-09-13 02:26:00,65.7,59.4,30.10,ENE,69,0.0,5.0,80,0.00,,---,0.00,VWS V14.01,2013-09-13 07:26:00,
2013-09-13 02:30:00,66.6,60.2,30.10,ENE,76,1.0,6.0,80,0.00,,---,0.00,VWS V14.01,2013-09-13 07:30:00,
2013-09-13 02:31:00,65.6,58.9,30.10,ENE,69,4.0,9.0,79,0.00,,---,0.00,VWS V14.01,2013-09-13 07:31:00,
2013-09-13 02:36:00,65.5,58.8,30.10,ENE,62,4.0,7.0,79,0.00,,---,0.00,VWS V14.01,2013-09-13 07:36:00,
2013-09-13 02:41:00,65.4,58.7,30.10,ENE,65,5.0,7.0,79,0.00,,---,0.00,VWS V14.01,2013-09-13 07:41:00,
2013-09-13 02:46:00,65.3,58.3,30.10,ENE,68,6.0,8.0,78,0.00,,---,0.00,VWS V14.01,2013-09-13 07:46:00,
2013-09-13 02:51:00,65.2,58.5,30.10,ENE,61,5.0,8.0,79,0.00,,---,0.00,VWS V14.01,2013-09-13 07:51:00,
2013-09-13 02:56:00,65.0,58.3,30.10,ENE,67,4.0,8.0,79,0.00,,---,0.00,VWS V14.01,2013-09-13 07:56:00,
2013-09-13 03:00:00,66.1,60.1,30.10,ENE,71,0.0,7.0,81,0.00,,---,0.00,VWS V14.01,2013-09-13 08:00:00,
2013-09-13 03:01:00,64.9,57.9,30.09,ENE,68,0.0,8.0,78,0.00,,---,0.00,VWS V14.01,2013-09-13 08:01:00,
2013-09-13 03:06:00,64.8,58.1,30.10,East,80,0.0,6.0,79,0.00,,---,0.00,VWS V14.01,2013-09-13 08:06:00,
2013-09-13 03:11:00,64.8,58.1,30.10,East,82,0.0,6.0,79,0.00,,---,0.00,VWS V14.01,2013-09-13 08:11:00,
2013-09-13 03:16:00,64.7,58.0,30.10,East,82,0.0,6.0,79,0.00,,---,0.00,VWS V14.01,2013-09-13 08:16:00,
2013-09-13 03:21:00,64.6,58.0,30.10,East,80,0.0,6.0,79,0.00,,---,0.00,VWS V14.01,2013-09-13 08:21:00,
2013-09-13 03:26:00,64.5,57.8,30.10,ENE,78,0.0,6.0,79,0.00,,---,0.00,VWS V14.01,2013-09-13 08:26:00,
2013-09-13 03:30:00,65.6,58.9,30.10,ENE,68,4.0,9.0,79,0.00,,---,0.00,VWS V14.01,2013-09-13 08:30:00,
2013-09-13 03:31:00,64.5,57.8,30.10,ENE,73,0.0,6.0,79,0.00,,---,0.00,VWS V14.01,2013-09-13 08:31:00,
2013-09-13 03:37:00,64.4,57.8,30.10,ENE,78,0.0,4.0,79,0.00,,---,0.00,VWS V14.01,2013-09-13 08:37:00,
2013-09-13 03:42:00,64.3,57.7,30.09,ENE,76,0.0,4.0,79,0.00,,---,0.00,VWS V14.01,2013-09-13 08:42:00,
2013-09-13 03:47:00,64.3,57.7,30.10,East,80,0.0,4.0,79,0.00,,---,0.00,VWS V14.01,2013-09-13 08:47:00,
2013-09-13 03:52:00,64.3,57.7,30.09,East,79,0.0,4.0,79,0.00,,---,0.00,VWS V14.01,2013-09-13 08:52:00,
2013-09-13 03:57:00,64.1,57.5,30.09,ENE,74,0.0,5.0,79,0.00,,---,0.00,VWS V14.01,2013-09-13 08:57:00,
2013-09-13 04:00:00,64.9,58.2,30.09,ENE,75,4.0,8.0,79,0.00,,---,0.00,VWS V14.01,2013-09-13 09:00:00,
2013-09-13 04:02:00,64.0,57.4,30.09,ENE,74,0.0,0.0,79,0.00,,---,0.00,VWS V14.01,2013-09-13 09:02:00,
2013-09-13 04:07:00,64.0,57.7,30.09,ENE,75,0.0,2.0,80,0.00,,---,0.00,VWS V14.01,2013-09-13 09:07:00,
2013-09-13 04:12:00,63.9,57.6,30.10,ENE,74,0.0,2.0,80,0.00,,---,0.00,VWS V14.01,2013-09-13 09:12:00,
2013-09-13 04:17:00,63.8,57.5,30.10,ENE,71,0.0,4.0,80,0.00,,---,0.00,VWS V14.01,2013-09-13 09:17:00,
2013-09-13 04:22:00,63.7,57.4,30.10,ENE,74,0.0,4.0,80,0.00,,---,0.00,VWS V14.01,2013-09-13 09:22:00,
2013-09-13 04:27:00,63.6,57.3,30.10,ENE,69,0.0,4.0,80,0.00,,---,0.00,VWS V14.01,2013-09-13 09:27:00,
2013-09-13 04:30:00,64.5,57.8,30.10,ENE,73,0.0,6.0,79,0.00,,---,0.00,VWS V14.01,2013-09-13 09:30:00,
2013-09-13 04:32:00,63.4,57.1,30.10,ENE,64,0.0,0.0,80,0.00,,---,0.00,VWS V14.01,2013-09-13 09:32:00,
2013-09-13 04:37:00,63.4,57.1,30.10,ENE,63,0.0,3.0,80,0.00,,---,0.00,VWS V14.01,2013-09-13 09:37:00,
2013-09-13 04:42:00,63.3,56.7,30.10,ENE,64,0.0,3.0,79,0.00,,---,0.00,VWS V14.01,2013-09-13 09:42:00,
2013-09-13 04:47:00,63.4,56.8,30.10,ENE,65,0.0,3.0,79,0.00,,---,0.00,VWS V14.01,2013-09-13 09:47:00,
2013-09-13 04:52:00,63.4,56.8,30.11,ENE,67,0.0,3.0,79,0.00,,---,0.00,VWS V14.01,2013-09-13 09:52:00,
2013-09-13 04:58:00,63.3,56.7,30.11,ENE,59,0.0,3.0,79,0.00,,---,0.00,VWS V14.01,2013-09-13 09:58:00,
2013-09-13 05:00:00,64.0,57.4,30.09,ENE,74,0.0,5.0,79,0.00,,---,0.00,VWS V14.01,2013-09-13 10:00:00,
2013-09-13 05:03:00,63.2,56.6,30.11,ENE,60,0.0,1.0,79,0.00,,---,0.00,VWS V14.01,2013-09-13 10:03:00,
2013-09-13 05:08:00,63.2,56.6,30.11,ENE,60,0.0,4.0,79,0.00,,---,0.00,VWS V14.01,2013-09-13 10:08:00,
2013-09-13 05:13:00,63.1,56.5,30.11,ENE,60,0.0,4.0,79,0.00,,---,0.00,VWS V14.01,2013-09-13 10:13:00,
2013-09-13 05:18:00,63.2,56.9,30.10,ENE,60,0.0,4.0,80,0.00,,---,0.00,VWS V14.01,2013-09-13 10:18:00,
2013-09-13 05:23:00,63.2,56.9,30.10,ENE,71,0.0,4.0,80,0.00,,---,0.00,VWS V14.01,2013-09-13 10:23:00,
2013-09-13 05:28:00,63.1,56.8,30.11,East,87,0.0,4.0,80,0.00,,---,0.00,VWS V14.01,2013-09-13 10:28:00,
2013-09-13 05:30:00,63.4,57.1,30.10,ENE,65,0.0,4.0,80,0.00,,---,0.00,VWS V14.01,2013-09-13 10:30:00,
2013-09-13 05:33:00,63.1,56.8,30.10,East,90,0.0,0.0,80,0.00,,---,0.00,VWS V14.01,2013-09-13 10:33:00,
2013-09-13 05:39:00,63.0,56.7,30.10,East,90,0.0,1.0,80,0.00,,---,0.00,VWS V14.01,2013-09-13 10:39:00,
2013-09-13 05:44:00,63.0,56.7,30.10,East,90,0.0,3.0,80,0.00,,---,0.00,VWS V14.01,2013-09-13 10:44:00,
2013-09-13 05:49:00,62.9,56.6,30.10,East,90,0.0,3.0,80,0.00,,---,0.00,VWS V14.01,2013-09-13 10:49:00,
2013-09-13 05:54:00,62.8,56.9,30.10,East,88,0.0,3.0,81,0.00,,---,0.00,VWS V14.01,2013-09-13 10:54:00,
2013-09-13 05:59:00,62.8,56.9,30.10,East,87,0.0,3.0,81,0.00,,---,0.00,VWS V14.01,2013-09-13 10:59:00,
2013-09-13 06:00:00,63.3,56.7,30.11,ENE,60,1.0,4.0,79,0.00,,---,0.00,VWS V14.01,2013-09-13 11:00:00,
2013-09-13 06:04:00,62.7,56.8,30.10,East,87,0.0,0.0,81,0.00,,---,0.00,VWS V14.01,2013-09-13 11:04:00,
2013-09-13 06:09:00,62.7,56.8,30.10,East,87,0.0,4.0,81,0.00,,---,0.00,VWS V14.01,2013-09-13 11:09:00,
2013-09-13 06:14:00,62.7,56.8,30.10,East,84,0.0,4.0,81,0.00,,---,0.00,VWS V14.01,2013-09-13 11:14:00,
2013-09-13 06:19:00,62.6,56.7,30.10,East,82,0.0,4.0,81,0.00,,---,0.00,VWS V14.01,2013-09-13 11:19:00,
2013-09-13 06:24:00,62.7,56.8,30.11,East,82,0.0,4.0,81,0.00,,---,0.00,VWS V14.01,2013-09-13 11:24:00,
2013-09-13 06:29:00,62.7,56.8,30.11,East,82,0.0,4.0,81,0.00,,---,0.00,VWS V14.01,2013-09-13 11:29:00,
2013-09-13 06:30:00,63.1,56.5,30.10,East,90,0.0,4.0,79,0.00,,---,0.00,VWS V14.01,2013-09-13 11:30:00,
2013-09-13 06:34:00,62.6,57.0,30.11,East,82,0.0,1.0,82,0.00,,---,0.00,VWS V14.01,2013-09-13 11:34:00,
2013-09-13 06:39:00,62.6,57.0,30.11,East,81,0.0,1.0,82,0.00,,---,0.00,VWS V14.01,2013-09-13 11:39:00,
2013-09-13 06:44:00,62.5,56.6,30.11,East,81,0.0,1.0,81,0.00,,---,0.00,VWS V14.01,2013-09-13 11:44:00,
2013-09-13 06:49:00,62.4,56.8,30.11,ENE,78,0.0,4.0,82,0.00,,---,0.00,VWS V14.01,2013-09-13 11:49:00,
2013-09-13 06:54:00,62.3,56.7,30.11,ENE,76,0.0,4.0,82,0.00,,---,0.00,VWS V14.01,2013-09-13 11:54:00,
2013-09-13 07:00:00,62.2,56.6,30.12,ENE,77,0.0,4.0,82,0.00,,---,0.00,VWS V14.01,2013-09-13 12:00:00,
2013-09-13 07:05:00,62.1,56.5,30.12,ENE,76,0.0,0.0,82,0.00,,---,0.00,VWS V14.01,2013-09-13 12:05:00,
2013-09-13 07:10:00,62.1,56.5,30.12,ENE,76,0.0,0.0,82,0.00,,---,0.00,VWS V14.01,2013-09-13 12:10:00,
2013-09-13 07:15:00,62.2,56.6,30.12,ENE,77,0.0,0.0,82,0.00,,---,0.00,VWS V14.01,2013-09-13 12:15:00,
2013-09-13 07:20:00,62.1,56.5,30.12,ENE,77,0.0,0.0,82,0.00,,---,0.00,VWS V14.01,2013-09-13 12:20:00,
2013-09-13 07:25:00,62.2,56.6,30.12,ENE,77,0.0,0.0,82,0.00,,---,0.00,VWS V14.01,2013-09-13 12:25:00,
2013-09-13 07:30:00,62.1,56.5,30.12,ENE,77,0.0,0.0,82,0.00,,---,0.00,VWS V14.01,2013-09-13 12:30:00,
2013-09-13 07:35:00,62.1,56.9,30.12,ENE,77,0.0,0.0,83,0.00,,---,0.00,VWS V14.01,2013-09-13 12:35:00,
2013-09-13 07:40:00,61.9,56.7,30.12,ENE,76,0.0,0.0,83,0.00,,---,0.00,VWS V14.01,2013-09-13 12:40:00,
2013-09-13 07:45:00,61.8,56.6,30.12,ENE,77,0.0,0.0,83,0.00,,---,0.00,VWS V14.01,2013-09-13 12:45:00,
2013-09-13 07:50:00,61.7,56.5,30.12,ENE,77,0.0,0.0,83,0.00,,---,0.00,VWS V14.01,2013-09-13 12:50:00,
2013-09-13 07:55:00,61.7,56.5,30.13,ENE,77,0.0,0.0,83,0.00,,---,0.00,VWS V14.01,2013-09-13 12:55:00,
2013-09-13 08:00:00,61.7,56.8,30.13,ENE,77,0.0,0.0,84,0.00,,---,0.00,VWS V14.01,2013-09-13 13:00:00,
2013-09-13 08:05:00,61.6,56.4,30.13,ENE,77,1.0,3.0,83,0.00,,---,0.00,VWS V14.01,2013-09-13 13:05:00,
2013-09-13 08:10:00,61.6,56.4,30.12,ENE,74,0.0,4.0,83,0.00,,---,0.00,VWS V14.01,2013-09-13 13:10:00,
2013-09-13 08:16:00,61.7,56.5,30.12,ENE,74,0.0,4.0,83,0.00,,---,0.00,VWS V14.01,2013-09-13 13:16:00,
2013-09-13 08:21:00,61.7,56.2,30.12,ENE,72,3.0,5.0,82,0.00,,---,0.00,VWS V14.01,2013-09-13 13:21:00,
2013-09-13 08:26:00,61.8,56.2,30.12,ENE,67,0.0,5.0,82,0.00,,---,0.00,VWS V14.01,2013-09-13 13:26:00,
2013-09-13 08:30:00,62.1,56.5,30.12,ENE,76,0.0,0.0,82,0.00,,---,0.00,VWS V14.01,2013-09-13 13:30:00,
2013-09-13 08:31:00,61.7,56.2,30.12,ENE,61,2.0,5.0,82,0.00,,---,0.00,VWS V14.01,2013-09-13 13:31:00,
2013-09-13 08:36:00,61.8,56.2,30.12,ENE,62,4.0,5.0,82,0.00,,---,0.00,VWS V14.01,2013-09-13 13:36:00,
2013-09-13 08:41:00,61.8,56.2,30.13,ENE,62,0.0,5.0,82,0.00,,---,0.00,VWS V14.01,2013-09-13 13:41:00,
2013-09-13 08:46:00,61.8,56.2,30.13,ENE,59,0.0,5.0,82,0.00,,---,0.00,VWS V14.01,2013-09-13 13:46:00,
2013-09-13 08:51:00,61.9,56.0,30.13,ENE,59,0.0,6.0,81,0.00,,---,0.00,VWS V14.01,2013-09-13 13:51:00,
2013-09-13 08:56:00,62.0,56.1,30.13,East,79,3.0,6.0,81,0.00,,---,0.00,VWS V14.01,2013-09-13 13:56:00,
2013-09-13 09:00:00,61.6,56.7,30.13,ENE,77,0.0,0.0,84,0.00,,---,0.00,VWS V14.01,2013-09-13 14:00:00,
2013-09-13 09:01:00,62.1,56.2,30.13,ENE,76,0.0,6.0,81,0.00,,---,0.00,VWS V14.01,2013-09-13 14:01:00,
2013-09-13 09:06:00,62.2,56.0,30.13,ENE,76,0.0,0.0,80,0.00,,---,0.00,VWS V14.01,2013-09-13 14:06:00,
2013-09-13 09:12:00,62.3,56.1,30.13,ENE,74,0.0,5.0,80,0.00,,---,0.00,VWS V14.01,2013-09-13 14:12:00,
2013-09-13 09:17:00,62.3,55.7,30.13,ENE,67,0.0,5.0,79,0.00,,---,0.00,VWS V14.01,2013-09-13 14:17:00,
2013-09-13 09:22:00,62.5,55.9,30.13,ENE,68,0.0,5.0,79,0.00,,---,0.00,VWS V14.01,2013-09-13 14:22:00,
2013-09-13 09:27:00,62.5,55.6,30.13,ENE,69,0.0,5.0,78,0.00,,---,0.00,VWS V14.01,2013-09-13 14:27:00,
2013-09-13 09:30:00,61.7,56.2,30.12,ENE,62,3.0,5.0,82,0.00,,---,0.00,VWS V14.01,2013-09-13 14:30:00,
2013-09-13 09:32:00,62.6,55.7,30.13,ENE,72,0.0,0.0,78,0.00,,---,0.00,VWS V14.01,2013-09-13 14:32:00,
2013-09-13 09:37:00,62.8,55.8,30.13,ENE,76,0.0,0.0,78,0.00,,---,0.00,VWS V14.01,2013-09-13 14:37:00,
2013-09-13 09:42:00,62.8,55.5,30.13,East,79,0.0,2.0,77,0.00,,---,0.00,VWS V14.01,2013-09-13 14:42:00,
2013-09-13 09:47:00,62.9,55.6,30.13,East,82,0.0,2.0,77,0.00,,---,0.00,VWS V14.01,2013-09-13 14:47:00,
2013-09-13 09:52:00,63.1,55.8,30.13,East,83,0.0,2.0,77,0.00,,---,0.00,VWS V14.01,2013-09-13 14:52:00,
2013-09-13 09:57:00,63.2,55.9,30.13,East,96,1.0,2.0,77,0.00,,---,0.00,VWS V14.01,2013-09-13 14:57:00,
2013-09-13 10:00:00,62.1,56.2,30.13,ENE,76,0.0,6.0,81,0.00,,---,0.00,VWS V14.01,2013-09-13 15:00:00,
2013-09-13 10:02:00,63.3,56.0,30.13,ESE,104,0.0,0.0,77,0.00,,---,0.00,VWS V14.01,2013-09-13 15:02:00,
2013-09-13 10:07:00,63.4,56.4,30.13,ESE,103,0.0,0.0,78,0.00,,---,0.00,VWS V14.01,2013-09-13 15:07:00,
2013-09-13 10:13:00,63.4,55.7,30.13,ESE,123,3.0,7.0,76,0.00,,---,0.00,VWS V14.01,2013-09-13 15:13:00,
2013-09-13 10:18:00,63.6,56.3,30.14,ESE,118,5.0,7.0,77,0.00,,---,0.00,VWS V14.01,2013-09-13 15:18:00,
2013-09-13 10:23:00,63.8,56.1,30.13,SE,126,3.0,7.0,76,0.00,,---,0.00,VWS V14.01,2013-09-13 15:23:00,
2013-09-13 10:28:00,64.2,56.8,30.14,ESE,121,7.0,9.0,77,0.00,,---,0.00,VWS V14.01,2013-09-13 15:28:00,
2013-09-13 10:30:00,62.6,55.7,30.13,ENE,72,0.0,5.0,78,0.00,,---,0.00,VWS V14.01,2013-09-13 15:30:00,
2013-09-13 10:33:00,64.5,56.0,30.14,ESE,120,5.0,7.0,74,0.00,,---,0.00,VWS V14.01,2013-09-13 15:33:00,
2013-09-13 10:38:00,64.8,56.3,30.14,SE,130,5.0,9.0,74,0.00,,---,0.00,VWS V14.01,2013-09-13 15:38:00,
2013-09-13 10:43:00,65.0,55.8,30.13,SE,130,5.0,10.0,72,0.00,,---,0.00,VWS V14.01,2013-09-13 15:43:00,
2013-09-13 10:48:00,65.2,55.6,30.14,SE,133,6.0,10.0,71,0.00,,---,0.00,VWS V14.01,2013-09-13 15:48:00,
2013-09-13 10:53:00,65.5,55.9,30.13,ESE,117,5.0,10.0,71,0.00,,---,0.00,VWS V14.01,2013-09-13 15:53:00,
2013-09-13 10:58:00,65.7,55.7,30.14,SE,125,8.0,10.0,70,0.00,,---,0.00,VWS V14.01,2013-09-13 15:58:00,
2013-09-13 11:00:00,63.3,56.0,30.13,ESE,103,0.0,5.0,77,0.00,,---,0.00,VWS V14.01,2013-09-13 16:00:00,
2013-09-13 11:04:00,65.9,55.5,30.13,ESE,104,10.0,10.0,69,0.00,,---,0.00,VWS V14.01,2013-09-13 16:04:00,
2013-09-13 11:09:00,66.0,55.2,30.14,ESE,105,8.0,10.0,68,0.00,,---,0.00,VWS V14.01,2013-09-13 16:09:00,
2013-09-13 11:14:00,66.2,54.5,30.14,SE,128,5.0,11.0,66,0.00,,---,0.00,VWS V14.01,2013-09-13 16:14:00,
2013-09-13 11:19:00,66.3,53.3,30.13,ESE,110,9.0,14.0,63,0.00,,---,0.00,VWS V14.01,2013-09-13 16:19:00,
2013-09-13 11:24:00,66.5,55.2,30.13,SE,134,3.0,14.0,67,0.00,,---,0.00,VWS V14.01,2013-09-13 16:24:00,
2013-09-13 11:29:00,66.6,54.1,30.13,SE,134,5.0,14.0,64,0.00,,---,0.00,VWS V14.01,2013-09-13 16:29:00,
2013-09-13 11:30:00,64.5,56.4,30.14,SE,132,6.0,9.0,75,0.00,,---,0.00,VWS V14.01,2013-09-13 16:30:00,
2013-09-13 11:34:00,66.7,54.6,30.13,SE,134,5.0,12.0,65,0.00,,---,0.00,VWS V14.01,2013-09-13 16:34:00,
2013-09-13 11:39:00,66.7,53.7,30.13,SSE,150,6.0,12.0,63,0.00,,---,0.00,VWS V14.01,2013-09-13 16:39:00,
2013-09-13 11:44:00,66.8,54.2,30.13,SE,132,6.0,14.0,64,0.00,,---,0.00,VWS V14.01,2013-09-13 16:44:00,
2013-09-13 11:49:00,67.1,53.7,30.13,SE,130,10.0,14.0,62,0.00,,---,0.00,VWS V14.01,2013-09-13 16:49:00,
2013-09-13 11:54:00,67.4,53.5,30.13,SE,142,10.0,14.0,61,0.00,,---,0.00,VWS V14.01,2013-09-13 16:54:00,
2013-09-13 11:59:00,67.2,53.3,30.13,SE,141,7.0,15.0,61,0.00,,---,0.00,VWS V14.01,2013-09-13 16:59:00,
2013-09-13 12:00:00,65.8,55.8,30.13,ESE,115,7.0,10.0,70,0.00,,---,0.00,VWS V14.01,2013-09-13 17:00:00,
2013-09-13 12:04:00,67.4,53.9,30.12,SE,132,13.0,14.0,62,0.00,,---,0.00,VWS V14.01,2013-09-13 17:04:00,
2013-09-13 12:10:00,67.4,53.5,30.12,SSE,153,10.0,14.0,61,0.00,,---,0.00,VWS V14.01,2013-09-13 17:10:00,
2013-09-13 12:15:00,67.6,54.1,30.12,ESE,122,9.0,14.0,62,0.00,,---,0.00,VWS V14.01,2013-09-13 17:15:00,
2013-09-13 12:20:00,67.6,53.2,30.12,SE,136,11.0,14.0,60,0.00,,---,0.00,VWS V14.01,2013-09-13 17:20:00,
2013-09-13 12:25:00,67.7,53.3,30.12,SE,124,10.0,14.0,60,0.00,,---,0.00,VWS V14.01,2013-09-13 17:25:00,
2013-09-13 12:30:00,67.7,53.8,30.12,SE,144,13.0,14.0,61,0.00,,---,0.00,VWS V14.01,2013-09-13 17:30:00,
2013-09-13 12:35:00,67.7,54.2,30.11,SE,146,12.0,14.0,62,0.00,,---,0.00,VWS V14.01,2013-09-13 17:35:00,
2013-09-13 12:40:00,67.6,53.7,30.12,SE,125,9.0,14.0,61,0.00,,---,0.00,VWS V14.01,2013-09-13 17:40:00,
2013-09-13 12:45:00,67.7,52.9,30.11,SE,130,11.0,14.0,59,0.00,,---,0.00,VWS V14.01,2013-09-13 17:45:00,
2013-09-13 12:50:00,67.9,53.5,30.11,ESE,117,8.0,14.0,60,0.00,,---,0.00,VWS V14.01,2013-09-13 17:50:00,
2013-09-13 12:55:00,67.7,52.9,30.11,SE,126,6.0,14.0,59,0.00,,---,0.00,VWS V14.01,2013-09-13 17:55:00,
2013-09-13 13:00:00,67.7,53.3,30.10,ESE,119,7.0,14.0,60,0.00,,---,0.00,VWS V14.01,2013-09-13 18:00:00,
2013-09-13 13:05:00,68.0,54.1,30.10,SSE,153,7.0,12.0,61,0.00,,---,0.00,VWS V14.01,2013-09-13 18:05:00,
2013-09-13 13:10:00,68.0,54.1,30.10,SE,142,7.0,12.0,61,0.00,,---,0.00,VWS V14.01,2013-09-13 18:10:00,
2013-09-13 13:16:00,68.1,54.2,30.10,SSE,156,12.0,12.0,61,0.00,,---,0.00,VWS V14.01,2013-09-13 18:16:00,
2013-09-13 13:21:00,68.0,53.2,30.10,SE,141,5.0,12.0,59,0.00,,---,0.00,VWS V14.01,2013-09-13 18:21:00,
2013-09-13 13:26:00,67.9,54.0,30.10,SE,129,7.0,14.0,61,0.00,,---,0.00,VWS V14.01,2013-09-13 18:26:00,
2013-09-13 13:30:00,67.6,53.2,30.12,SSE,155,10.0,14.0,60,0.00,,---,0.00,VWS V14.01,2013-09-13 18:30:00,
2013-09-13 13:31:00,67.8,53.4,30.10,SE,140,8.0,14.0,60,0.00,,---,0.00,VWS V14.01,2013-09-13 18:31:00,
2013-09-13 13:36:00,67.5,53.1,30.10,SE,136,9.0,11.0,60,0.00,,---,0.00,VWS V14.01,2013-09-13 18:36:00,
2013-09-13 13:41:00,67.6,53.2,30.10,SE,146,6.0,11.0,60,0.00,,---,0.00,VWS V14.01,2013-09-13 18:41:00,
2013-09-13 13:46:00,67.7,52.4,30.10,SE,144,4.0,14.0,58,0.00,,---,0.00,VWS V14.01,2013-09-13 18:46:00,
2013-09-13 13:51:00,67.8,53.4,30.10,SSE,149,10.0,14.0,60,0.00,,---,0.00,VWS V14.01,2013-09-13 18:51:00,
2013-09-13 13:56:00,67.8,53.4,30.09,SE,141,8.0,14.0,60,0.00,,---,0.00,VWS V14.01,2013-09-13 18:56:00,
2013-09-13 14:00:00,67.8,54.3,30.11,SE,128,6.0,14.0,62,0.00,,---,0.00,VWS V14.01,2013-09-13 19:00:00,
2013-09-13 14:01:00,67.9,54.0,30.09,SE,146,7.0,14.0,61,0.00,,---,0.00,VWS V14.01,2013-09-13 19:01:00,
2013-09-13 14:07:00,68.0,54.5,30.09,SE,133,5.0,9.0,62,0.00,,---,0.00,VWS V14.01,2013-09-13 19:07:00,
2013-09-13 14:12:00,68.0,54.1,30.08,ESE,122,10.0,11.0,61,0.00,,---,0.00,VWS V14.01,2013-09-13 19:12:00,
2013-09-13 14:17:00,68.0,54.1,30.08,ESE,115,6.0,11.0,61,0.00,,---,0.00,VWS V14.01,2013-09-13 19:17:00,
2013-09-13 14:22:00,68.3,54.3,30.08,SSE,160,5.0,12.0,61,0.00,,---,0.00,VWS V14.01,2013-09-13 19:22:00,
2013-09-13 14:27:00,68.1,54.6,30.08,SE,143,11.0,13.0,62,0.00,,---,0.00,VWS V14.01,2013-09-13 19:27:00,
2013-09-13 14:30:00,67.7,54.2,30.10,SSE,150,9.0,14.0,62,0.00,,---,0.00,VWS V14.01,2013-09-13 19:30:00,
2013-09-13 14:32:00,68.1,53.7,30.08,SE,133,6.0,8.0,60,0.00,,---,0.00,VWS V14.01,2013-09-13 19:32:00,
2013-09-13 14:37:00,68.1,54.2,30.07,SE,138,11.0,12.0,61,0.00,,---,0.00,VWS V14.01,2013-09-13 19:37:00,
2013-09-13 14:42:00,68.2,54.2,30.07,SE,141,5.0,12.0,61,0.00,,---,0.00,VWS V14.01,2013-09-13 19:42:00,
2013-09-13 14:47:00,68.5,54.1,30.07,ESE,112,7.0,12.0,60,0.00,,---,0.00,VWS V14.01,2013-09-13 19:47:00,
2013-09-13 14:52:00,68.4,54.0,30.07,SE,132,6.0,12.0,60,0.00,,---,0.00,VWS V14.01,2013-09-13 19:52:00,
2013-09-13 14:57:00,68.5,54.5,30.07,ESE,115,5.0,12.0,61,0.00,,---,0.00,VWS V14.01,2013-09-13 19:57:00,
2013-09-13 15:00:00,67.9,54.0,30.09,SE,145,7.0,14.0,61,0.00,,---,0.00,VWS V14.01,2013-09-13 20:00:00,
2013-09-13 15:02:00,68.3,54.8,30.06,SSE,151,5.0,10.0,62,0.00,,---,0.00,VWS V14.01,2013-09-13 20:02:00,
2013-09-13 15:07:00,68.1,55.5,30.06,SE,129,4.0,10.0,64,0.00,,---,0.00,VWS V14.01,2013-09-13 20:07:00,
2013-09-13 15:13:00,68.1,54.6,30.06,SSE,148,5.0,10.0,62,0.00,,---,0.00,VWS V14.01,2013-09-13 20:13:00,
2013-09-13 15:18:00,68.3,55.2,30.06,SSE,155,10.0,10.0,63,0.00,,---,0.00,VWS V14.01,2013-09-13 20:18:00,
2013-09-13 15:23:00,68.3,55.2,30.05,SE,138,6.0,10.0,63,0.00,,---,0.00,VWS V14.01,2013-09-13 20:23:00,
2013-09-13 15:28:00,68.4,55.3,30.05,SE,126,0.0,10.0,63,0.00,,---,0.00,VWS V14.01,2013-09-13 20:28:00,
2013-09-13 15:30:00,68.1,53.7,30.08,SE,137,4.0,13.0,60,0.00,,---,0.00,VWS V14.01,2013-09-13 20:30:00,
2013-09-13 15:33:00,68.6,55.1,30.05,SE,138,5.0,9.0,62,0.00,,---,0.00,VWS V14.01,2013-09-13 20:33:00,
2013-09-13 15:38:00,68.5,55.4,30.05,SE,133,6.0,9.0,63,0.00,,---,0.00,VWS V14.01,2013-09-13 20:38:00,
2013-09-13 15:43:00,68.6,56.0,30.05,SSE,151,6.0,10.0,64,0.00,,---,0.00,VWS V14.01,2013-09-13 20:43:00,
2013-09-13 15:48:00,68.5,55.0,30.04,SE,142,0.0,10.0,62,0.00,,---,0.00,VWS V14.01,2013-09-13 20:48:00,
2013-09-13 15:53:00,68.7,55.6,30.04,SE,141,0.0,10.0,63,0.00,,---,0.00,VWS V14.01,2013-09-13 20:53:00,
2013-09-13 15:58:00,68.7,55.2,30.04,ESE,118,0.0,10.0,62,0.00,,---,0.00,VWS V14.01,2013-09-13 20:58:00,
2013-09-13 16:00:00,68.3,54.8,30.06,SSE,153,9.0,12.0,62,0.00,,---,0.00,VWS V14.01,2013-09-13 21:00:00,
2013-09-13 16:03:00,68.9,56.2,30.03,SE,141,4.0,7.0,64,0.00,,---,0.00,VWS V14.01,2013-09-13 21:03:00,
2013-09-13 16:09:00,69.0,55.5,30.03,East,90,0.0,8.0,62,0.00,,---,0.00,VWS V14.01,2013-09-13 21:09:00,
2013-09-13 16:14:00,69.0,55.0,30.03,East,94,0.0,8.0,61,0.00,,---,0.00,VWS V14.01,2013-09-13 21:14:00,
2013-09-13 16:19:00,69.2,55.2,30.03,East,83,0.0,8.0,61,0.00,,---,0.00,VWS V14.01,2013-09-13 21:19:00,
2013-09-13 16:24:00,69.4,55.4,30.03,ESE,105,7.0,10.0,61,0.00,,---,0.00,VWS V14.01,2013-09-13 21:24:00,
2013-09-13 16:29:00,69.4,55.8,30.03,East,94,3.0,10.0,62,0.00,,---,0.00,VWS V14.01,2013-09-13 21:29:00,
2013-09-13 16:30:00,68.6,55.5,30.05,SE,143,6.0,10.0,63,0.00,,---,0.00,VWS V14.01,2013-09-13 21:30:00,
2013-09-13 16:34:00,69.3,54.8,30.03,ESE,121,5.0,7.0,60,0.00,,---,0.00,VWS V14.01,2013-09-13 21:34:00,
2013-09-13 16:39:00,69.2,55.6,30.03,East,87,7.0,8.0,62,0.00,,---,0.00,VWS V14.01,2013-09-13 21:39:00,
2013-09-13 16:44:00,69.3,55.7,30.02,ENE,78,3.0,9.0,62,0.00,,---,0.00,VWS V14.01,2013-09-13 21:44:00,
2013-09-13 16:49:00,69.2,55.2,30.02,ESE,105,4.0,10.0,61,0.00,,---,0.00,VWS V14.01,2013-09-13 21:49:00,
2013-09-13 16:54:00,69.1,55.5,30.02,East,98,0.0,10.0,62,0.00,,---,0.00,VWS V14.01,2013-09-13 21:54:00,
2013-09-13 16:59:00,69.2,55.2,30.02,ENE,60,6.0,10.0,61,0.00,,---,0.00,VWS V14.01,2013-09-13 21:59:00,
2013-09-13 17:00:00,68.9,55.8,30.03,SSE,154,5.0,10.0,63,0.00,,---,0.00,VWS V14.01,2013-09-13 22:00:00,
2013-09-13 17:05:00,69.2,55.2,30.02,ENE,77,0.0,9.0,61,0.00,,---,0.00,VWS V14.01,2013-09-13 22:05:00,
2013-09-13 17:10:00,69.2,54.7,30.02,East,99,6.0,9.0,60,0.00,,---,0.00,VWS V14.01,2013-09-13 22:10:00,
2013-09-13 17:15:00,69.2,54.7,30.02,East,85,0.0,9.0,60,0.00,,---,0.00,VWS V14.01,2013-09-13 22:15:00,
2013-09-13 17:20:00,69.2,54.7,30.01,East,99,4.0,9.0,60,0.00,,---,0.00,VWS V14.01,2013-09-13 22:20:00,
2013-09-13 17:25:00,69.2,54.7,30.02,ESE,113,5.0,9.0,60,0.00,,---,0.00,VWS V14.01,2013-09-13 22:25:00,
2013-09-13 17:30:00,69.2,54.3,30.01,ESE,114,10.0,10.0,59,0.00,,---,0.00,VWS V14.01,2013-09-13 22:30:00,
2013-09-13 17:35:00,69.0,54.5,30.01,ESE,109,1.0,10.0,60,0.00,,---,0.00,VWS V14.01,2013-09-13 22:35:00,
2013-09-13 17:40:00,69.1,55.1,30.01,East,101,4.0,10.0,61,0.00,,---,0.00,VWS V14.01,2013-09-13 22:40:00,
2013-09-13 17:45:00,69.0,54.5,30.00,East,98,4.0,10.0,60,0.00,,---,0.00,VWS V14.01,2013-09-13 22:45:00,
2013-09-13 17:50:00,68.9,54.9,30.00,East,99,6.0,10.0,61,0.00,,---,0.00,VWS V14.01,2013-09-13 22:50:00,
2013-09-13 17:55:00,68.8,55.7,30.00,ESE,103,7.0,10.0,63,0.00,,---,0.00,VWS V14.01,2013-09-13 22:55:00,
2013-09-13 18:00:00,68.6,54.6,30.01,East,99,0.0,10.0,61,0.00,,---,0.00,VWS V14.01,2013-09-13 23:00:00,
2013-09-13 18:05:00,68.5,55.9,30.00,East,99,0.0,5.0,64,0.00,,---,0.00,VWS V14.01,2013-09-13 23:05:00,
2013-09-13 18:10:00,68.5,55.9,30.00,East,99,0.0,5.0,64,0.00,,---,0.00,VWS V14.01,2013-09-13 23:10:00,
2013-09-13 18:16:00,68.5,55.9,30.00,ESE,113,0.0,5.0,64,0.00,,---,0.00,VWS V14.01,2013-09-13 23:16:00,
2013-09-13 18:21:00,68.6,56.0,30.00,ESE,113,0.0,5.0,64,0.00,,---,0.00,VWS V14.01,2013-09-13 23:21:00,
2013-09-13 18:26:00,68.7,55.6,30.00,ESE,113,0.0,5.0,63,0.00,,---,0.00,VWS V14.01,2013-09-13 23:26:00,
2013-09-13 18:30:00,69.2,54.3,30.01,ESE,112,7.0,10.0,59,0.00,,---,0.00,VWS V14.01,2013-09-13 23:30:00,
2013-09-13 18:31:00,68.8,56.6,30.00,ESE,109,0.0,5.0,65,0.00,,---,0.00,VWS V14.01,2013-09-13 23:31:00,
2013-09-13 18:36:00,68.8,56.1,30.00,ESE,109,6.0,6.0,64,0.00,,---,0.00,VWS V14.01,2013-09-13 23:36:00,
2013-09-13 18:41:00,68.8,55.3,30.00,ESE,105,0.0,6.0,62,0.00,,---,0.00,VWS V14.01,2013-09-13 23:41:00,
2013-09-13 18:46:00,68.8,54.8,30.00,ESE,122,5.0,7.0,61,0.00,,---,0.00,VWS V14.01,2013-09-13 23:46:00,
2013-09-13 18:51:00,68.8,55.3,30.00,ESE,107,0.0,7.0,62,0.00,,---,0.00,VWS V14.01,2013-09-13 23:51:00,
2013-09-13 18:56:00,68.7,56.0,30.00,ESE,119,0.0,7.0,64,0.00,,---,0.00,VWS V14.01,2013-09-13 23:56:00,
2013-09-13 19:00:00,68.6,55.1,30.00,East,99,0.0,10.0,62,0.00,,---,0.00,VWS V14.01,2013-09-14 00:00:00,
2013-09-13 19:01:00,68.6,55.1,30.00,ESE,110,0.0,7.0,62,0.00,,---,0.00,VWS V14.01,2013-09-14 00:01:00,
2013-09-13 19:06:00,68.4,55.3,30.00,ESE,111,0.0,1.0,63,0.00,,---,0.00,VWS V14.01,2013-09-14 00:06:00,
2013-09-13 19:12:00,68.1,55.0,29.99,ESE,115,0.0,5.0,63,0.00,,---,0.00,VWS V14.01,2013-09-14 00:12:00,
2013-09-13 19:17:00,67.9,55.3,29.99,ESE,115,0.0,5.0,64,0.00,,---,0.00,VWS V14.01,2013-09-14 00:17:00,
2013-09-13 19:22:00,67.7,55.1,29.99,ESE,114,1.0,5.0,64,0.00,,---,0.00,VWS V14.01,2013-09-14 00:22:00,
2013-09-13 19:27:00,67.4,55.2,29.99,ESE,113,0.0,5.0,65,0.00,,---,0.00,VWS V14.01,2013-09-14 00:27:00,
2013-09-13 19:30:00,68.8,56.1,30.00,ESE,109,0.0,5.0,64,0.00,,---,0.00,VWS V14.01,2013-09-14 00:30:00,
2013-09-13 19:32:00,67.3,55.6,29.99,ESE,113,0.0,0.0,66,0.00,,---,0.00,VWS V14.01,2013-09-14 00:32:00,
2013-09-13 19:37:00,67.0,55.3,29.99,ESE,113,0.0,0.0,66,0.00,,---,0.00,VWS V14.01,2013-09-14 00:37:00,
2013-09-13 19:42:00,66.8,55.9,29.99,ESE,113,0.0,0.0,68,0.00,,---,0.00,VWS V14.01,2013-09-14 00:42:00,
2013-09-13 19:47:00,66.6,55.7,29.99,ESE,113,0.0,2.0,68,0.00,,---,0.00,VWS V14.01,2013-09-14 00:47:00,
2013-09-13 19:52:00,66.5,56.0,30.00,ESE,113,0.0,2.0,69,0.00,,---,0.00,VWS V14.01,2013-09-14 00:52:00,
2013-09-13 19:57:00,66.3,55.8,30.00,ESE,113,0.0,2.0,69,0.00,,---,0.00,VWS V14.01,2013-09-14 00:57:00,
2013-09-13 20:00:00,68.6,55.1,30.00,ESE,111,0.0,7.0,62,0.00,,---,0.00,VWS V14.01,2013-09-14 01:00:00,
2013-09-13 20:02:00,66.1,56.0,30.00,ESE,113,0.0,0.0,70,0.00,,---,0.00,VWS V14.01,2013-09-14 01:02:00,
2013-09-13 20:07:00,65.9,55.8,30.00,ESE,113,0.0,0.0,70,0.00,,---,0.00,VWS V14.01,2013-09-14 01:07:00,
2013-09-13 20:12:00,65.8,56.2,30.00,ESE,113,0.0,0.0,71,0.00,,---,0.00,VWS V14.01,2013-09-14 01:12:00,
2013-09-13 20:17:00,65.7,56.4,30.00,ESE,113,0.0,0.0,72,0.00,,---,0.00,VWS V14.01,2013-09-14 01:17:00,
2013-09-13 20:22:00,65.6,56.3,30.00,ESE,113,0.0,0.0,72,0.00,,---,0.00,VWS V14.01,2013-09-14 01:22:00,
2013-09-13 20:27:00,65.4,56.5,30.00,ESE,113,0.0,0.0,73,0.00,,---,0.00,VWS V14.01,2013-09-14 01:27:00,
2013-09-13 20:30:00,67.3,55.6,29.99,ESE,113,0.0,5.0,66,0.00,,---,0.00,VWS V14.01,2013-09-14 01:30:00,
2013-09-13 20:33:00,65.2,56.3,30.00,ESE,113,0.0,0.0,73,0.00,,---,0.00,VWS V14.01,2013-09-14 01:33:00,
2013-09-13 20:38:00,65.2,56.0,30.00,ESE,113,0.0,2.0,72,0.00,,---,0.00,VWS V14.01,2013-09-14 01:38:00,
2013-09-13 20:43:00,65.2,55.6,30.00,ESE,113,0.0,2.0,71,0.00,,---,0.00,VWS V14.01,2013-09-14 01:43:00,
2013-09-13 20:48:00,65.2,55.6,30.00,ESE,113,0.0,2.0,71,0.00,,---,0.00,VWS V14.01,2013-09-14 01:48:00,
2013-09-13 20:53:00,65.1,55.9,30.00,ESE,113,0.0,2.0,72,0.00,,---,0.00,VWS V14.01,2013-09-14 01:53:00,
2013-09-13 20:58:00,65.2,55.6,30.00,ESE,113,0.0,4.0,71,0.00,,---,0.00,VWS V14.01,2013-09-14 01:58:00,
2013-09-13 21:00:00,66.1,56.0,30.00,ESE,113,0.0,2.0,70,0.00,,---,0.00,VWS V14.01,2013-09-14 02:00:00,
2013-09-13 21:03:00,65.1,55.9,30.00,ESE,113,0.0,0.0,72,0.00,,---,0.00,VWS V14.01,2013-09-14 02:03:00,
2013-09-13 21:08:00,65.1,55.5,30.00,ESE,113,0.0,0.0,71,0.00,,---,0.00,VWS V14.01,2013-09-14 02:08:00,
2013-09-13 21:13:00,65.1,55.9,30.00,ESE,113,0.0,0.0,72,0.00,,---,0.00,VWS V14.01,2013-09-14 02:13:00,
2013-09-13 21:18:00,65.0,55.8,30.00,ESE,113,0.0,0.0,72,0.00,,---,0.00,VWS V14.01,2013-09-14 02:18:00,
2013-09-13 21:23:00,64.9,55.7,30.00,ESE,113,0.0,0.0,72,0.00,,---,0.00,VWS V14.01,2013-09-14 02:23:00,
2013-09-13 21:28:00,64.9,55.3,30.00,ESE,113,0.0,1.0,71,0.00,,---,0.00,VWS V14.01,2013-09-14 02:28:00,
2013-09-13 21:30:00,65.3,56.4,30.00,ESE,113,0.0,1.0,73,0.00,,---,0.00,VWS V14.01,2013-09-14 02:30:00,
2013-09-13 21:33:00,64.9,55.3,30.00,ESE,113,0.0,2.0,71,0.00,,---,0.00,VWS V14.01,2013-09-14 02:33:00,
2013-09-13 21:38:00,64.9,55.7,30.00,ESE,113,0.0,2.0,72,0.00,,---,0.00,VWS V14.01,2013-09-14 02:38:00,
2013-09-13 21:43:00,64.8,55.6,30.00,ESE,113,0.0,2.0,72,0.00,,---,0.00,VWS V14.01,2013-09-14 02:43:00,
2013-09-13 21:48:00,64.7,55.5,30.00,ESE,113,0.0,2.0,72,0.00,,---,0.00,VWS V14.01,2013-09-14 02:48:00,
2013-09-13 21:53:00,64.5,55.7,30.00,ESE,113,0.0,2.0,73,0.00,,---,0.00,VWS V14.01,2013-09-14 02:53:00,
2013-09-13 21:59:00,64.4,55.6,30.00,ESE,113,0.0,2.0,73,0.00,,---,0.00,VWS V14.01,2013-09-14 02:59:00,
2013-09-13 22:00:00,65.2,56.0,30.00,ESE,113,0.0,4.0,72,0.00,,---,0.00,VWS V14.01,2013-09-14 03:00:00,
2013-09-13 22:04:00,64.4,55.6,30.00,ESE,113,0.0,0.0,73,0.00,,---,0.00,VWS V14.01,2013-09-14 03:04:00,
2013-09-13 22:09:00,64.3,55.5,30.00,ESE,113,0.0,2.0,73,0.00,,---,0.00,VWS V14.01,2013-09-14 03:09:00,
2013-09-13 22:14:00,64.3,55.5,30.00,ESE,113,0.0,2.0,73,0.00,,---,0.00,VWS V14.01,2013-09-14 03:14:00,
2013-09-13 22:19:00,64.2,55.4,30.00,ESE,113,0.0,2.0,73,0.00,,---,0.00,VWS V14.01,2013-09-14 03:19:00,
2013-09-13 22:24:00,64.0,55.2,30.00,ESE,113,0.0,2.0,73,0.00,,---,0.00,VWS V14.01,2013-09-14 03:24:00,
2013-09-13 22:29:00,63.9,55.1,30.00,ESE,113,0.0,2.0,73,0.00,,---,0.00,VWS V14.01,2013-09-14 03:29:00,
2013-09-13 22:30:00,65.0,55.4,30.00,ESE,113,0.0,1.0,71,0.00,,---,0.00,VWS V14.01,2013-09-14 03:30:00,
2013-09-13 22:34:00,63.9,55.1,30.00,ESE,113,0.0,0.0,73,0.00,,---,0.00,VWS V14.01,2013-09-14 03:34:00,
2013-09-13 22:39:00,63.9,55.1,30.00,ESE,113,0.0,0.0,73,0.00,,---,0.00,VWS V14.01,2013-09-14 03:39:00,
2013-09-13 22:44:00,64.0,55.2,30.00,ESE,113,0.0,0.0,73,0.00,,---,0.00,VWS V14.01,2013-09-14 03:44:00,
2013-09-13 22:49:00,64.0,55.2,30.00,ESE,113,0.0,0.0,73,0.00,,---,0.00,VWS V14.01,2013-09-14 03:49:00,
2013-09-13 22:54:00,63.9,55.1,30.00,ESE,113,0.0,0.0,73,0.00,,---,0.00,VWS V14.01,2013-09-14 03:54:00,
2013-09-13 22:59:00,63.9,54.7,30.00,ESE,113,0.0,0.0,72,0.00,,---,0.00,VWS V14.01,2013-09-14 03:59:00,
2013-09-13 23:00:00,64.4,55.6,29.99,ESE,113,0.0,2.0,73,0.00,,---,0.00,VWS V14.01,2013-09-14 04:00:00,
2013-09-13 23:01:00,63.9,54.7,30.00,ESE,113,0.0,1.0,72,0.00,,---,0.00,VWS V14.01,2013-09-14 04:01:00,
2013-09-13 23:02:00,63.9,54.7,30.00,ESE,113,0.0,0.0,72,0.00,,---,0.00,VWS V14.01,2013-09-14 04:02:00,
2013-09-13 23:03:00,63.8,55.0,30.00,ESE,113,0.0,0.0,73,0.00,,---,0.00,VWS V14.01,2013-09-14 04:03:00,
2013-09-13 23:04:00,63.8,55.0,30.00,ESE,113,0.0,0.0,73,0.00,,---,0.00,VWS V14.01,2013-09-14 04:04:00,
2013-09-13 23:09:00,63.6,54.8,30.00,ESE,113,0.0,0.0,73,0.00,,---,0.00,VWS V14.01,2013-09-14 04:09:00,
2013-09-13 23:14:00,63.5,54.7,30.00,ESE,113,0.0,0.0,73,0.00,,---,0.00,VWS V14.01,2013-09-14 04:14:00,
2013-09-13 23:19:00,63.3,54.9,30.00,ESE,113,0.0,0.0,74,0.00,,---,0.00,VWS V14.01,2013-09-14 04:19:00,
2013-09-13 23:24:00,63.2,54.4,30.00,ESE,113,0.0,0.0,73,0.00,,---,0.00,VWS V14.01,2013-09-14 04:24:00,
2013-09-13 23:30:00,63.2,54.4,30.00,ESE,114,3.0,4.0,73,0.00,,---,0.00,VWS V14.01,2013-09-14 04:30:00,
2013-09-13 23:35:00,63.3,54.5,30.00,SE,134,0.0,1.0,73,0.00,,---,0.00,VWS V14.01,2013-09-14 04:35:00,
2013-09-13 23:40:00,63.2,54.4,30.00,East,101,0.0,5.0,73,0.00,,---,0.00,VWS V14.01,2013-09-14 04:40:00,
2013-09-13 23:45:00,62.7,53.9,29.99,SE,126,0.0,5.0,73,0.00,,---,0.00,VWS V14.01,2013-09-14 04:45:00,
2013-09-13 23:50:00,62.7,53.9,29.99,ESE,105,0.0,5.0,73,0.00,,---,0.00,VWS V14.01,2013-09-14 04:50:00,
2013-09-13 23:55:00,62.4,53.6,29.99,ESE,105,0.0,5.0,73,0.00,,---,0.00,VWS V14.01,2013-09-14 04:55:00,